Time;durP1;ratioP1;P1;durP2;ratioP2;P2;SDS_P1;SDS_P2;PMS_P1;PMS_P2;Temp;Humidity;BMP_temperature;BMP_pressure;BME280_temperature;BME280_humidity;BME280_pressure;Samples;Min_cycle;Max_cycle;Signal;HPM_P1;HPM_P2
2022/10/11 00:01:06;;;;;;;5.58;2.37;;;;;;;9.81;78.31;101785.18;1990231;71;21033;-58
2022/10/11 00:03:35;;;;;;;2.17;1.52;;;;;;;9.83;78.76;101787.33;1942401;74;21140;-57
2022/10/11 00:06:04;;;;;;;3.25;1.92;;;;;;;9.84;78.72;101783.81;1912156;75;21062;-57
2022/10/11 00:08:34;;;;;;;4.97;2.17;;;;;;;9.82;78.94;101781.67;1912221;75;21094;-60
2022/10/11 00:11:05;;;;;;;3.75;1.32;;;;;;;9.82;79.17;101785.61;1912040;75;21058;-60
2022/10/11 00:13:34;;;;;;;3.25;1.75;;;;;;;9.81;79.15;101779.92;1912057;75;21125;-59
2022/10/11 00:16:08;;;;;;;6.95;1.85;;;;;;;9.79;79.22;101779.08;1912136;75;21124;-60
2022/10/11 00:18:37;;;;;;;4.05;1.92;;;;;;;9.80;79.53;101783.46;1912109;75;21003;-56
2022/10/11 00:21:09;;;;;;;3.85;1.67;;;;;;;9.79;79.56;101784.34;1912116;75;21450;-56
2022/10/11 00:23:38;;;;;;;2.37;0.95;;;;;;;9.77;79.50;101794.03;1920808;74;21024;-57
2022/10/11 00:26:09;;;;;;;1.65;1.10;;;;;;;9.75;79.31;101797.14;1940922;74;21419;-57
2022/10/11 00:28:38;;;;;;;2.75;1.62;;;;;;;9.74;79.24;101799.34;1945666;74;21093;-56
2022/10/11 00:31:10;;;;;;;2.75;1.50;;;;;;;9.75;79.30;101801.95;1945635;74;21060;-57
2022/10/11 00:33:39;;;;;;;4.20;1.35;;;;;;;9.76;79.39;101802.84;1947591;72;21081;-58
2022/10/11 00:36:09;;;;;;;4.12;1.70;;;;;;;9.74;79.44;101805.48;1971841;72;21431;-58
2022/10/11 00:38:37;;;;;;;3.90;2.00;;;;;;;9.71;79.78;101800.27;1962429;72;21089;-57
2022/10/11 00:41:06;;;;;;;4.00;2.12;;;;;;;9.69;80.14;101807.78;1945632;74;21093;-57
2022/10/11 00:46:27;;;;;;;4.17;1.90;;;;;;;9.62;80.44;101794.73;1903409;75;21047;-57
2022/10/11 00:49:05;;;;;;;3.15;1.60;;;;;;;9.63;80.69;101798.25;1896196;75;21058;-58
2022/10/11 00:51:39;;;;;;;5.58;2.60;;;;;;;9.66;80.74;101803.43;1891250;76;21121;-58
2022/10/11 00:54:09;;;;;;;3.30;1.45;;;;;;;9.73;80.79;101812.09;1888984;76;21578;-56
2022/10/11 00:56:39;;;;;;;5.10;1.45;;;;;;;9.77;80.64;101815.93;1884507;76;21512;-57
2022/10/11 00:59:14;;;;;;;4.53;1.55;;;;;;;9.83;80.52;101816.27;1884459;76;21090;-59
2022/10/11 01:01:43;;;;;;;3.85;1.50;;;;;;;9.84;80.57;101821.50;1883699;76;21149;-58
2022/10/11 01:04:12;;;;;;;3.75;1.90;;;;;;;9.83;80.41;101814.95;1881956;76;21656;-59
2022/10/11 01:06:42;;;;;;;4.30;1.90;;;;;;;9.77;80.32;101809.81;1883368;76;21517;-57
2022/10/11 01:09:12;;;;;;;5.95;2.08;;;;;;;9.72;80.42;101811.66;1884882;76;21023;-60
2022/10/11 01:11:43;;;;;;;5.45;2.60;;;;;;;9.64;80.51;101801.28;1885078;76;21047;-58
2022/10/11 01:14:32;;;;;;;6.90;2.10;;;;;;;9.57;80.52;101798.34;1885156;76;21050;-58
2022/10/11 01:17:19;;;;;;;2.92;1.57;;;;;;;9.48;80.63;101805.97;1892102;75;21547;-57
2022/10/11 01:20:03;;;;;;;5.05;1.57;;;;;;;9.40;80.85;101806.52;1906979;75;21465;-58
2022/10/11 01:22:43;;;;;;;5.17;1.62;;;;;;;9.31;80.68;101806.68;1907102;74;21105;-59
2022/10/11 01:25:15;;;;;;;6.62;1.98;;;;;;;9.21;80.71;101797.64;1889837;75;21022;-58
2022/10/11 01:28:03;;;;;;;5.55;2.02;;;;;;;9.14;80.81;101799.94;1896827;75;21054;-60
2022/10/11 01:30:34;;;;;;;7.22;1.67;;;;;;;9.12;81.22;101803.49;1893729;76;21173;-58
2022/10/11 01:33:09;;;;;;;3.95;1.80;;;;;;;9.10;81.70;101803.52;1890935;76;21066;-59
2022/10/11 01:35:43;;;;;;;3.22;1.80;;;;;;;9.09;82.07;101808.33;1889935;76;21508;-59
2022/10/11 01:38:23;;;;;;;5.55;2.02;;;;;;;9.08;82.22;101810.55;1891112;76;21195;-59
2022/10/11 01:40:54;;;;;;;7.12;2.25;;;;;;;9.08;82.52;101812.73;1891686;76;21824;-60
2022/10/11 01:43:26;;;;;;;7.22;2.62;;;;;;;9.10;82.45;101811.85;1891505;76;21110;-60
2022/10/11 01:45:58;;;;;;;5.65;2.15;;;;;;;9.09;82.57;101814.90;1884369;76;21116;-59
2022/10/11 01:48:27;;;;;;;5.10;2.60;;;;;;;9.08;82.58;101820.61;1879767;76;21028;-60
2022/10/11 01:50:57;;;;;;;5.28;2.30;;;;;;;9.06;82.60;101824.17;1877471;76;21042;-60
2022/10/11 01:53:38;;;;;;;9.65;2.30;;;;;;;9.03;82.70;101825.06;1879754;76;21520;-60
2022/10/11 01:56:25;;;;;;;11.83;3.12;;;;;;;8.99;82.82;101827.77;1878439;76;21482;-59
2022/10/11 01:59:20;;;;;;;6.03;1.87;;;;;;;8.94;82.80;101825.66;1870551;76;21125;-55
2022/10/11 02:02:08;;;;;;;7.17;1.55;;;;;;;8.87;82.61;101821.81;1875159;76;21086;-55
2022/10/11 02:04:40;;;;;;;2.20;1.42;;;;;;;8.80;82.54;101816.68;1883550;75;21533;-51
2022/10/11 02:07:29;;;;;;;2.35;1.40;;;;;;;8.75;82.55;101810.16;1887486;75;21090;-54
2022/10/11 02:10:13;;;;;;;2.12;1.10;;;;;;;8.74;82.69;101806.24;1896345;75;21565;-56
2022/10/11 02:12:59;;;;;;;;;;;;;;;8.71;82.69;101804.55;1894859;75;21114;-53
2022/10/11 02:15:31;;;;;;;2.17;1.60;;;;;;;8.73;83.03;101809.77;1890632;76;20105;-59
2022/10/11 02:18:03;;;;;;;3.72;1.30;;;;;;;8.75;83.06;101803.59;1891336;76;21066;-58
2022/10/11 02:20:34;;;;;;;4.22;1.15;;;;;;;8.82;83.42;101805.25;1889992;76;21043;-58
2022/10/11 02:23:11;;;;;;;1.90;1.10;;;;;;;8.89;83.48;101806.89;1879932;76;21046;-59
2022/10/11 02:25:40;;;;;;;5.28;1.60;;;;;;;8.96;83.35;101804.17;1877688;76;21517;-57
2022/10/11 02:28:11;;;;;;;4.28;2.05;;;;;;;9.02;83.32;101809.34;1879875;76;21532;-57
2022/10/11 02:30:42;;;;;;;8.15;1.57;;;;;;;9.08;83.29;101807.93;1877275;76;21035;-57
2022/10/11 02:33:13;;;;;;;2.60;1.32;;;;;;;9.11;83.02;101813.56;1879133;76;21059;-51
2022/10/11 02:35:45;;;;;;;2.98;1.40;;;;;;;9.10;82.82;101812.71;1878981;76;21165;-54
2022/10/11 02:38:22;;;;;;;3.62;1.30;;;;;;;9.09;82.72;101813.59;1879343;76;21146;-61
2022/10/11 02:41:00;;;;;;;6.47;1.40;;;;;;;9.07;82.64;101812.75;1879149;76;21148;-60
2022/10/11 02:43:35;;;;;;;6.00;1.50;;;;;;;9.02;82.57;101810.20;1876859;76;21156;-60
2022/10/11 02:46:06;;;;;;;1.32;0.93;;;;;;;8.97;82.50;101813.34;1879720;76;21052;-59
2022/10/11 02:48:36;;;;;;;2.02;1.15;;;;;;;8.93;82.66;101811.66;1889799;75;21038;-65
2022/10/11 02:51:05;;;;;;;3.83;1.32;;;;;;;8.89;82.52;101816.55;1888515;76;21474;-61
2022/10/11 02:53:34;;;;;;;2.87;1.32;;;;;;;8.86;82.59;101817.89;1879546;76;21050;-63
2022/10/11 02:56:03;;;;;;;5.30;1.37;;;;;;;8.84;82.95;101813.97;1878954;76;21105;-60
2022/10/11 02:58:32;;;;;;;4.58;1.67;;;;;;;8.85;83.10;101813.52;1879047;76;21039;-60
2022/10/11 03:01:00;;;;;;;4.85;1.90;;;;;;;8.84;83.34;101811.34;1879022;76;21019;-60
2022/10/11 03:03:29;;;;;;;5.30;2.10;;;;;;;8.86;83.35;101814.81;1871012;76;21078;-58
2022/10/11 03:06:02;;;;;;;10.90;2.37;;;;;;;8.88;83.43;101816.97;1869612;77;21121;-58
2022/10/11 03:08:32;;;;;;;3.30;1.72;;;;;;;8.91;83.48;101815.18;1869928;77;21067;-58
2022/10/11 03:11:01;;;;;;;4.60;1.50;;;;;;;8.88;83.28;101816.97;1869817;77;21552;-58
2022/10/11 03:13:29;;;;;;;5.17;1.80;;;;;;;8.82;83.03;101814.44;1876836;76;21568;-58
2022/10/11 03:15:59;;;;;;;5.25;2.27;;;;;;;8.75;82.92;101817.19;1879925;76;21042;-59
2022/10/11 03:18:29;;;;;;;10.63;2.30;;;;;;;8.67;82.86;101821.23;1879335;76;21490;-59
2022/10/11 03:20:58;;;;;;;4.55;2.50;;;;;;;8.63;83.22;101816.89;1878960;76;21156;-59
2022/10/11 03:23:27;;;;;;;5.17;1.80;;;;;;;8.63;83.52;101817.78;1879171;76;21027;-58
2022/10/11 03:25:55;;;;;;;9.05;2.22;;;;;;;8.65;83.64;101816.42;1879820;76;21022;-58
2022/10/11 03:28:24;;;;;;;4.22;2.10;;;;;;;8.67;83.69;101810.28;1879881;76;21054;-59
2022/10/11 03:30:53;;;;;;;4.15;1.80;;;;;;;8.73;83.82;101810.63;1879861;76;21107;-59
2022/10/11 03:33:22;;;;;;;4.83;1.90;;;;;;;8.81;83.73;101800.88;1876802;76;21596;-62
2022/10/11 03:35:54;;;;;;;5.97;2.02;;;;;;;8.95;83.45;101805.08;1847353;78;21116;-62
2022/10/11 03:38:23;;;;;;;5.92;2.42;;;;;;;9.00;83.10;101800.17;1847334;77;21437;-62
2022/10/11 03:40:52;;;;;;;3.30;1.60;;;;;;;9.03;82.90;101811.92;1847312;78;21489;-60
2022/10/11 03:43:22;;;;;;;4.55;1.45;;;;;;;9.06;82.74;101811.89;1847207;78;21477;-61
2022/10/11 03:45:54;;;;;;;3.67;1.87;;;;;;;9.07;82.62;101818.89;1878419;75;21154;-62
2022/10/11 03:48:21;;;;;;;4.65;1.57;;;;;;;9.10;82.46;101826.30;1879361;76;21144;-61
2022/10/11 03:50:50;;;;;;;3.00;1.30;;;;;;;9.10;82.32;101831.10;1879878;76;21082;-61
2022/10/11 03:53:21;;;;;;;2.17;1.30;;;;;;;9.08;82.20;101827.18;1879907;76;21113;-61
2022/10/11 03:55:54;;;;;;;3.00;1.52;;;;;;;9.09;82.12;101830.66;1878984;76;21546;-61
2022/10/11 03:58:24;;;;;;;3.70;1.67;;;;;;;9.10;82.08;101827.61;1878839;76;21106;-61
2022/10/11 04:00:53;;;;;;;3.33;1.40;;;;;;;9.12;81.95;101824.06;1878883;76;21079;-62
2022/10/11 04:03:23;;;;;;;3.33;1.10;;;;;;;9.16;81.80;101827.51;1873655;76;21532;-61
2022/10/11 04:05:52;;;;;;;4.25;1.40;;;;;;;9.19;81.69;101821.77;1872503;76;21079;-62
2022/10/11 04:08:21;;;;;;;3.33;0.90;;;;;;;9.24;81.55;101821.25;1878804;76;21137;-58
2022/10/11 04:10:49;;;;;;;2.35;1.25;;;;;;;9.30;81.44;101832.56;1878809;76;21086;-59
2022/10/11 04:13:18;;;;;;;7.45;0.85;;;;;;;9.38;81.26;101828.03;1878793;76;21086;-59
2022/10/11 04:15:47;;;;;;;2.22;0.90;;;;;;;9.49;81.11;101839.23;1878807;76;21506;-59
2022/10/11 04:18:16;;;;;;;1.65;0.88;;;;;;;9.57;80.87;101832.09;1878862;76;21117;-60
2022/10/11 04:20:45;;;;;;;1.37;0.90;;;;;;;9.65;80.65;101835.44;1878989;76;21466;-59
2022/10/11 04:23:13;;;;;;;2.15;0.60;;;;;;;9.73;80.48;101837.07;1878744;76;21144;-59
2022/10/11 04:25:44;;;;;;;2.77;1.00;;;;;;;9.80;80.30;101835.61;1877646;76;21101;-60
2022/10/11 04:28:12;;;;;;;0.95;0.80;;;;;;;9.92;80.10;101847.66;1879666;76;21125;-58
2022/10/11 04:30:41;;;;;;;3.08;0.90;;;;;;;10.03;79.92;101848.78;1879817;76;21142;-59
2022/10/11 04:33:10;;;;;;;0.90;0.60;;;;;;;10.11;79.79;101851.29;1879921;76;21090;-55
2022/10/11 04:35:39;;;;;;;4.05;0.70;;;;;;;10.14;79.61;101851.21;1879743;76;21023;-57
2022/10/11 04:38:08;;;;;;;1.20;0.55;;;;;;;10.13;79.56;101839.83;1879028;76;21137;-57
2022/10/11 04:40:37;;;;;;;4.62;0.93;;;;;;;10.13;79.54;101853.44;1878983;76;21023;-57
2022/10/11 04:43:07;;;;;;;1.15;0.75;;;;;;;10.11;79.58;101854.78;1877921;76;21058;-58
2022/10/11 04:45:37;;;;;;;1.05;0.70;;;;;;;10.19;79.50;101862.52;1878952;76;21615;-62
2022/10/11 04:48:06;;;;;;;1.40;0.70;;;;;;;10.29;79.35;101863.20;1864610;76;21088;-61
2022/10/11 04:50:35;;;;;;;6.42;1.07;;;;;;;10.40;79.12;101873.98;1845505;78;21173;-57
2022/10/11 04:53:06;;;;;;;1.75;0.75;;;;;;;10.49;78.99;101868.95;1844878;78;21553;-58
2022/10/11 04:55:35;;;;;;;1.02;0.60;;;;;;;10.58;78.89;101871.40;1845495;78;21081;-57
2022/10/11 04:58:04;;;;;;;1.87;0.72;;;;;;;10.70;78.72;101872.07;1848326;76;21130;-57
2022/10/11 05:00:33;;;;;;;2.33;0.93;;;;;;;10.81;78.17;101878.83;1845557;78;21076;-58
2022/10/11 05:03:02;;;;;;;1.57;0.60;;;;;;;10.93;77.93;101875.50;1863241;76;21671;-57
2022/10/11 05:05:32;;;;;;;2.15;0.70;;;;;;;11.04;77.59;101868.21;1885891;76;21063;-57
2022/10/11 05:08:01;;;;;;;1.12;0.78;;;;;;;11.12;77.24;101878.14;1886343;76;21114;-57
2022/10/11 05:10:30;;;;;;;6.72;0.75;;;;;;;11.13;76.59;101869.31;1886041;76;21071;-57
2022/10/11 05:12:59;;;;;;;3.50;0.75;;;;;;;11.33;76.02;101869.31;1886255;76;21055;-57
2022/10/11 05:15:27;;;;;;;3.40;0.78;;;;;;;11.57;75.78;101867.37;1886066;76;21020;-59
2022/10/11 05:17:57;;;;;;;0.78;0.60;;;;;;;11.75;75.13;101867.83;1886304;76;21084;-59
2022/10/11 05:20:26;;;;;;;1.22;0.57;;;;;;;11.88;75.19;101867.91;1849462;76;21056;-57
2022/10/11 05:22:55;;;;;;;2.35;0.72;;;;;;;12.05;74.40;101875.88;1845512;78;21491;-57
2022/10/11 05:25:24;;;;;;;2.85;0.80;;;;;;;12.25;73.35;101871.37;1845610;78;21028;-59
2022/10/11 05:27:52;;;;;;;6.55;0.72;;;;;;;12.47;70.43;101867.66;1845435;78;21017;-56
2022/10/11 05:30:21;;;;;;;1.57;0.78;;;;;;;12.73;70.30;101876.99;1848283;76;21169;-56
2022/10/11 05:32:50;;;;;;;1.77;0.90;;;;;;;13.13;69.06;101861.23;1845564;78;21040;-58
2022/10/11 05:35:19;;;;;;;1.72;0.60;;;;;;;13.69;68.46;101870.02;1845505;78;21076;-58
2022/10/11 05:37:47;;;;;;;1.30;0.80;;;;;;;14.32;66.28;101878.86;1845567;78;21072;-58
2022/10/11 05:40:16;;;;;;;1.98;0.70;;;;;;;14.59;62.65;101865.94;1848163;76;21052;-58
2022/10/11 05:42:45;;;;;;;1.77;0.57;;;;;;;15.10;63.78;101874.56;1845529;78;21045;-57
2022/10/11 05:45:14;;;;;;;2.98;1.00;;;;;;;15.63;61.99;101882.58;1856292;76;21125;-58
2022/10/11 05:47:43;;;;;;;1.85;0.60;;;;;;;16.02;58.81;101853.94;1880994;76;21066;-58
2022/10/11 05:50:11;;;;;;;1.20;0.75;;;;;;;16.01;58.11;101871.68;1858050;77;21285;-58
2022/10/11 05:52:40;;;;;;;2.67;0.62;;;;;;;16.14;55.87;101864.03;1846426;78;21075;-57
2022/10/11 05:55:09;;;;;;;3.75;0.82;;;;;;;16.47;57.71;101876.73;1846290;77;21059;-58
2022/10/11 05:57:38;;;;;;;2.52;0.95;;;;;;;17.07;58.48;101867.77;1846386;78;21055;-61
2022/10/11 06:00:08;;;;;;;2.27;0.70;;;;;;;17.54;55.75;101865.89;1846425;78;21079;-61
2022/10/11 06:02:38;;;;;;;2.52;0.80;;;;;;;17.77;55.48;101862.05;1858689;77;21102;-59
2022/10/11 06:05:08;;;;;;;1.52;0.70;;;;;;;18.32;55.75;101876.98;1858864;77;21046;-57
2022/10/11 06:07:37;;;;;;;1.07;0.70;;;;;;;18.50;53.14;101882.65;1858886;77;21050;-57
2022/10/11 06:10:07;;;;;;;0.68;0.40;;;;;;;18.70;51.48;101866.00;1858920;77;21482;-58
2022/10/11 06:12:36;;;;;;;4.28;0.80;;;;;;;19.01;51.40;101866.52;1857715;77;21051;-58
2022/10/11 06:15:07;;;;;;;1.30;0.60;;;;;;;19.33;50.49;101866.50;1858998;77;21042;-58
2022/10/11 06:17:36;;;;;;;0.90;0.40;;;;;;;19.72;50.03;101856.23;1858882;77;21035;-57
2022/10/11 06:20:05;;;;;;;1.52;0.85;;;;;;;19.44;49.51;101868.06;1858574;77;21066;-57
2022/10/11 06:22:34;;;;;;;2.90;0.70;;;;;;;18.40;48.58;101864.56;1859011;77;21071;-59
2022/10/11 06:25:03;;;;;;;1.55;0.60;;;;;;;18.43;48.39;101873.25;1858866;77;21445;-59
2022/10/11 06:27:31;;;;;;;1.22;0.60;;;;;;;18.79;48.40;101865.97;1858883;77;21105;-59
2022/10/11 06:30:00;;;;;;;0.50;0.50;;;;;;;18.56;48.83;101884.59;1851527;77;21157;-62
2022/10/11 06:32:29;;;;;;;0.95;0.65;;;;;;;17.69;50.01;101876.23;1846875;78;21079;-62
2022/10/11 06:34:58;;;;;;;5.53;1.15;;;;;;;17.34;50.90;101882.38;1846946;78;21051;-62
2022/10/11 06:37:27;;;;;;;1.12;0.70;;;;;;;16.88;51.31;101881.09;1847091;78;21129;-62
2022/10/11 06:39:55;;;;;;;1.52;0.62;;;;;;;16.25;52.23;101883.93;1846934;77;21055;-62
2022/10/11 06:42:24;;;;;;;0.60;0.60;;;;;;;15.78;53.23;101891.25;1847074;78;21039;-62
2022/10/11 06:44:53;;;;;;;2.10;0.90;;;;;;;15.81;53.50;101886.30;1846881;78;21099;-64
2022/10/11 06:47:22;;;;;;;1.10;0.72;;;;;;;15.54;53.38;101888.28;1846969;78;21059;-62
2022/10/11 06:49:50;;;;;;;1.47;0.80;;;;;;;15.35;54.18;101891.69;1862914;76;21454;-62
2022/10/11 06:52:19;;;;;;;1.70;0.50;;;;;;;15.93;53.82;101891.53;1848854;76;21043;-62
2022/10/11 06:54:48;;;;;;;0.90;0.53;;;;;;;16.13;53.07;101895.50;1845472;78;21095;-61
2022/10/11 06:57:16;;;;;;;2.00;0.60;;;;;;;16.96;52.54;101890.41;1845486;78;21055;-62
2022/10/11 06:59:45;;;;;;;5.58;0.75;;;;;;;16.91;52.31;101895.11;1848081;76;21059;-61
2022/10/11 07:02:14;;;;;;;0.82;0.40;;;;;;;16.74;51.70;101889.67;1848181;76;21078;-62
2022/10/11 07:04:43;;;;;;;2.05;0.42;;;;;;;17.03;51.96;101888.33;1845542;78;21127;-62
2022/10/11 07:07:13;;;;;;;2.62;0.50;;;;;;;17.11;49.98;101869.33;1845575;78;21474;-62
2022/10/11 07:09:42;;;;;;;2.05;0.60;;;;;;;16.52;50.80;101887.14;1845713;78;21143;-62
2022/10/11 07:12:11;;;;;;;0.93;0.80;;;;;;;17.01;49.94;101892.02;1885865;76;21025;-62
2022/10/11 07:14:40;;;;;;;1.00;0.60;;;;;;;17.80;48.88;101896.53;1886342;76;21131;-62
2022/10/11 07:17:09;;;;;;;3.55;0.50;;;;;;;17.88;48.14;101897.49;1886461;76;21025;-61
2022/10/11 07:19:37;;;;;;;1.55;0.50;;;;;;;17.44;48.04;101886.77;1859794;76;21023;-62
2022/10/11 07:22:06;;;;;;;1.60;0.60;;;;;;;17.86;47.88;101891.38;1845704;78;21039;-61
2022/10/11 07:24:35;;;;;;;2.22;0.80;;;;;;;18.05;48.10;101897.47;1845574;78;21039;-62
2022/10/11 07:27:04;;;;;;;0.80;0.50;;;;;;;17.81;47.06;101887.58;1845624;78;21099;-61
2022/10/11 07:29:33;;;;;;;4.40;0.57;;;;;;;17.82;46.89;101895.13;1848378;76;21027;-61
2022/10/11 07:32:02;;;;;;;4.42;0.50;;;;;;;17.37;47.27;101897.33;1845633;78;21094;-62
2022/10/11 07:34:31;;;;;;;0.90;0.42;;;;;;;17.32;48.27;101898.91;1845599;78;21551;-56
2022/10/11 07:36:59;;;;;;;0.80;0.40;;;;;;;18.65;46.58;101901.44;1845589;78;21051;-60
2022/10/11 07:39:29;;;;;;;1.52;0.47;;;;;;;18.38;46.73;101900.63;1853834;76;21092;-59
2022/10/11 07:41:58;;;;;;;2.12;0.60;;;;;;;18.58;46.26;101894.70;1886340;76;20998;-58
2022/10/11 07:44:27;;;;;;;0.47;0.35;;;;;;;18.27;45.84;101895.02;1886438;76;21026;-56
2022/10/11 07:46:55;;;;;;;0.62;0.40;;;;;;;18.79;46.11;101896.17;1868184;76;21071;-59
2022/10/11 07:49:25;;;;;;;0.75;0.40;;;;;;;18.65;46.19;101885.43;1851297;77;21086;-58
2022/10/11 07:51:53;;;;;;;1.32;0.57;;;;;;;17.79;46.93;101900.59;1865754;77;21041;-59
2022/10/11 07:54:22;;;;;;;1.00;0.50;;;;;;;18.20;46.23;101883.80;1866078;77;21519;-62
2022/10/11 07:56:51;;;;;;;0.88;0.40;;;;;;;19.65;44.03;101880.62;1864633;77;21046;-62
2022/10/11 07:59:20;;;;;;;0.72;0.50;;;;;;;19.43;44.23;101881.50;1859550;76;21059;-57
2022/10/11 08:01:49;;;;;;;0.53;0.30;;;;;;;20.73;42.81;101892.81;1859592;77;21117;-57
2022/10/11 08:04:17;;;;;;;1.27;0.50;;;;;;;20.27;43.30;101890.77;1859583;77;21027;-60
2022/10/11 08:06:46;;;;;;;1.15;0.60;;;;;;;19.64;43.46;101886.93;1859427;77;21047;-61
2022/10/11 08:09:15;;;;;;;3.50;0.70;;;;;;;19.26;43.48;101896.69;1851797;77;21039;-59
2022/10/11 08:11:44;;;;;;;0.90;0.88;;;;;;;18.63;44.12;101893.51;1851798;77;21580;-59
2022/10/11 08:14:13;;;;;;;3.35;0.90;;;;;;;17.91;45.21;101888.02;1851778;77;21120;-59
2022/10/11 08:16:42;;;;;;;3.20;0.60;;;;;;;17.51;45.41;101890.00;1851720;77;21010;-59
2022/10/11 08:19:11;;;;;;;2.25;0.60;;;;;;;17.08;46.43;101884.98;1858335;77;21009;-58
2022/10/11 08:21:40;;;;;;;0.82;0.60;;;;;;;16.67;47.28;101890.89;1859565;77;21477;-58
2022/10/11 08:24:29;;;;;;;1.37;0.80;;;;;;;16.42;48.22;101887.19;1851716;77;21146;-56
2022/10/11 08:26:58;;;;;;;2.52;0.65;;;;;;;18.27;45.81;101884.34;1851650;77;21046;-56
2022/10/11 08:29:27;;;;;;;2.27;0.50;;;;;;;18.90;44.38;101888.95;1853597;77;21224;-57
2022/10/11 08:31:56;;;;;;;2.20;0.50;;;;;;;20.48;42.19;101881.42;1854676;77;21136;-55
2022/10/11 08:34:25;;;;;;;1.75;0.80;;;;;;;21.65;40.41;101873.84;1854650;77;21054;-55
2022/10/11 08:36:54;;;;;;;0.57;0.47;;;;;;;22.39;39.47;101881.32;1854672;77;21070;-55
2022/10/11 08:39:22;;;;;;;3.05;0.60;;;;;;;23.01;37.77;101876.41;1854255;77;21151;-55
2022/10/11 08:41:57;;;;;;;1.92;0.70;;;;;;;23.37;36.50;101883.59;1854560;77;21101;-55
2022/10/11 08:44:41;;;;;;;1.55;0.70;;;;;;;24.04;36.12;101882.09;1854159;77;21094;-56
2022/10/11 08:47:25;;;;;;;0.88;0.60;;;;;;;23.37;34.35;101863.44;1854776;77;21047;-54
2022/10/11 08:49:53;;;;;;;;;;;;;;;23.30;35.27;101893.08;1849951;77;21381;-54
2022/10/11 08:52:30;;;;;;;1.52;0.55;;;;;;;23.23;34.63;101887.79;1842413;78;20119;-56
2022/10/11 08:55:14;;;;;;;3.60;0.40;;;;;;;22.49;35.51;101897.16;1842243;78;21083;-56
2022/10/11 08:57:45;;;;;;;0.80;0.50;;;;;;;22.42;35.30;101877.09;1816130;78;21564;-56
2022/10/11 09:00:17;;;;;;;1.85;0.60;;;;;;;22.78;34.59;101886.12;1843964;77;21090;-56
2022/10/11 09:02:49;;;;;;;1.65;0.55;;;;;;;23.12;33.91;101884.06;1842401;78;21137;-56
2022/10/11 09:05:19;;;;;;;1.67;0.65;;;;;;;23.23;33.96;101883.76;1841777;78;21086;-56
2022/10/11 09:08:12;;;;;;;2.25;0.60;;;;;;;23.63;34.48;101876.72;1842520;78;21054;-52
2022/10/11 09:10:58;;;;;;;1.20;0.50;;;;;;;24.11;34.05;101881.98;1843649;77;21071;-53
2022/10/11 09:13:53;;;;;;;1.35;0.50;;;;;;;24.10;33.14;101881.61;1842442;78;21019;-52
2022/10/11 09:16:28;;;;;;;0.90;0.53;;;;;;;24.02;33.18;101875.98;1840815;78;21565;-53
2022/10/11 09:19:14;;;;;;;1.32;0.70;;;;;;;24.43;33.64;101875.88;1841835;77;21129;-51
2022/10/11 09:22:07;;;;;;;4.15;0.72;;;;;;;24.91;33.54;101882.33;1839901;77;21505;-58
2022/10/11 09:25:12;;;;;;;3.67;0.62;;;;;;;24.90;34.31;101887.37;1833921;78;21607;-58
2022/10/11 09:28:04;;;;;;;1.82;0.70;;;;;;;24.25;35.41;101881.77;1833614;78;21067;-58
2022/10/11 09:30:33;;;;;;;0.70;0.60;;;;;;;23.70;36.07;101876.63;1844515;76;21571;-59
2022/10/11 09:33:11;;;;;;;1.82;0.57;;;;;;;22.20;37.84;101889.30;1845144;78;21544;-59
2022/10/11 09:35:43;;;;;;;2.35;0.80;;;;;;;20.91;39.37;101893.43;1845138;78;21156;-58
2022/10/11 09:38:14;;;;;;;2.25;0.80;;;;;;;19.97;40.88;101895.22;1845027;78;21058;-59
2022/10/11 09:40:49;;;;;;;0.93;0.60;;;;;;;20.05;41.40;101893.45;1859781;76;21070;-58
2022/10/11 09:43:17;;;;;;;1.40;0.50;;;;;;;20.39;41.03;101894.03;1875520;76;21047;-57
2022/10/11 09:45:46;;;;;;;0.68;0.45;;;;;;;19.76;41.72;101896.53;1875388;76;21042;-57
2022/10/11 09:48:18;;;;;;;1.42;0.50;;;;;;;19.05;42.44;101896.11;1875451;76;21027;-57
2022/10/11 09:50:48;;;;;;;1.85;0.50;;;;;;;18.84;43.05;101892.82;1859751;76;21055;-57
2022/10/11 09:53:18;;;;;;;0.98;0.70;;;;;;;18.67;43.54;101894.20;1833721;78;21122;-57
2022/10/11 09:55:56;;;;;;;1.30;0.42;;;;;;;18.59;43.82;101875.08;1833789;78;21632;-60
2022/10/11 09:58:30;;;;;;;2.25;0.70;;;;;;;18.37;44.11;101878.93;1833062;78;21087;-60
2022/10/11 10:01:05;;;;;;;3.37;0.70;;;;;;;18.18;44.69;101886.17;1845450;76;21055;-57
2022/10/11 10:03:36;;;;;;;1.07;0.60;;;;;;;18.01;45.24;101889.25;1875422;76;21043;-56
2022/10/11 10:06:13;;;;;;;2.00;0.78;;;;;;;17.87;45.68;101895.31;1875345;76;21169;-56
2022/10/11 10:08:45;;;;;;;1.70;0.53;;;;;;;18.01;45.84;101891.06;1875428;76;21156;-56
2022/10/11 10:11:15;;;;;;;1.92;0.68;;;;;;;19.10;44.73;101884.67;1873182;76;21031;-61
2022/10/11 10:13:56;;;;;;;3.50;0.85;;;;;;;20.23;42.75;101888.77;1875363;76;21150;-59
2022/10/11 10:16:30;;;;;;;3.70;1.00;;;;;;;21.32;41.74;101879.17;1875392;76;21043;-59
2022/10/11 10:19:05;;;;;;;2.67;0.80;;;;;;;21.79;38.91;101876.94;1866359;76;21055;-59
2022/10/11 10:21:40;;;;;;;1.55;0.68;;;;;;;21.97;37.50;101850.20;1845197;78;21179;-57
2022/10/11 10:24:17;;;;;;;1.72;0.80;;;;;;;21.87;38.61;101879.09;1847996;77;21638;-59
2022/10/11 10:27:06;;;;;;;5.67;0.70;;;;;;;21.92;37.35;101878.30;1848851;77;21133;-58
2022/10/11 10:29:36;;;;;;;1.65;0.98;;;;;;;21.86;38.58;101872.03;1851373;76;21179;-59
2022/10/11 10:32:10;;;;;;;2.98;1.20;;;;;;;22.22;38.15;101877.97;1845415;78;21090;-59
2022/10/11 10:34:42;;;;;;;1.85;0.75;;;;;;;22.05;38.28;101878.31;1843269;78;21458;-59
2022/10/11 10:37:19;;;;;;;2.12;0.70;;;;;;;22.31;37.71;101867.96;1842776;77;21083;-58
2022/10/11 10:39:51;;;;;;;1.85;0.62;;;;;;;22.33;37.25;101871.39;1849599;76;21144;-58
2022/10/11 10:42:22;;;;;;;1.25;0.50;;;;;;;22.40;36.70;101868.30;1854412;77;21027;-51
2022/10/11 10:44:57;;;;;;;2.25;0.70;;;;;;;22.16;37.19;101859.14;1853742;77;21062;-50
2022/10/11 10:47:40;;;;;;;1.35;0.50;;;;;;;22.10;37.15;101856.05;1855355;76;21168;-58
2022/10/11 10:50:15;;;;;;;1.98;0.70;;;;;;;21.54;38.03;101867.02;1856831;76;21263;-57
2022/10/11 10:52:50;;;;;;;1.67;0.50;;;;;;;20.96;38.77;101863.20;1878271;76;21074;-54
2022/10/11 10:55:37;;;;;;;0.40;0.40;;;;;;;21.26;39.16;101856.78;1880942;76;21116;-59
2022/10/11 10:58:09;;;;;;;0.65;0.40;;;;;;;21.69;38.30;101854.40;1879637;76;21121;-58
2022/10/11 11:01:05;;;;;;;1.87;0.50;;;;;;;21.50;38.86;101856.99;1879787;76;21046;-54
2022/10/11 11:03:42;;;;;;;0.75;0.47;;;;;;;21.00;39.49;101865.20;1895040;75;21095;-55
2022/10/11 11:06:13;;;;;;;2.52;0.57;;;;;;;21.10;39.97;101857.42;1895018;76;21029;-56
2022/10/11 11:09:07;;;;;;;2.75;0.68;;;;;;;21.93;39.55;101856.75;1894669;76;21117;-54
2022/10/11 11:11:54;;;;;;;2.10;0.50;;;;;;;22.73;39.08;101867.69;1894998;76;21116;-54
2022/10/11 11:14:47;;;;;;;1.95;0.75;;;;;;;23.05;36.70;101846.53;1894861;76;21045;-57
2022/10/11 11:17:33;;;;;;;1.55;1.10;;;;;;;22.71;37.56;101851.69;1866632;76;21579;-58
2022/10/11 11:20:07;;;;;;;2.55;0.65;;;;;;;22.16;37.51;101855.61;1881948;76;21485;-60
2022/10/11 11:22:51;;;;;;;4.03;0.70;;;;;;;21.57;38.12;101850.25;1895025;76;21096;-58
2022/10/11 11:25:26;;;;;;;3.05;0.82;;;;;;;21.44;38.85;101857.88;1894579;76;21029;-62
2022/10/11 11:28:10;;;;;;;3.60;0.70;;;;;;;21.68;39.05;101859.40;1894904;76;21487;-63
2022/10/11 11:30:47;;;;;;;1.37;0.50;;;;;;;21.19;39.25;101855.02;1894402;76;21029;-62
2022/10/11 11:33:27;;;;;;;0.45;0.42;;;;;;;20.62;40.21;101860.53;1893902;76;21034;-57
2022/10/11 11:35:59;;;;;;;1.00;0.50;;;;;;;19.95;40.78;101861.05;1893900;76;21155;-57
2022/10/11 11:38:45;;;;;;;3.00;0.45;;;;;;;19.49;41.43;101863.77;1895013;76;21010;-57
2022/10/11 11:41:23;;;;;;;2.35;0.60;;;;;;;19.35;42.17;101859.70;1894908;76;21460;-57
2022/10/11 11:43:55;;;;;;;4.35;0.50;;;;;;;19.16;42.57;101856.77;1894270;76;21203;-58
2022/10/11 11:46:26;;;;;;;1.87;0.40;;;;;;;18.93;42.62;101859.91;1888287;76;21116;-53
2022/10/11 11:48:58;;;;;;;1.05;0.60;;;;;;;18.71;42.85;101849.92;1888268;76;21019;-55
2022/10/11 11:51:39;;;;;;;2.50;0.70;;;;;;;18.56;43.38;101851.26;1888750;76;21159;-55
2022/10/11 11:54:32;;;;;;;0.50;0.30;;;;;;;18.43;43.73;101859.92;1888975;76;21011;-56
2022/10/11 11:57:19;;;;;;;1.40;1.10;;;;;;;18.36;44.18;101853.20;1888635;76;21453;-53